sensor_id;sensor_type;location;lat;lon;timestamp;P1;durP1;ratioP1;P2;durP2;ratioP2
18544;SDS011;9402;51.460;7.276;2024-02-15T00:00:28;17.00;;;12.20;;
18544;SDS011;9402;51.460;7.276;2024-02-15T00:02:30;16.13;;;11.70;;
18544;SDS011;9402;51.460;7.276;2024-02-15T00:04:31;26.03;;;14.20;;
18544;SDS011;9402;51.460;7.276;2024-02-15T00:06:33;16.60;;;12.17;;
18544;SDS011;9402;51.460;7.276;2024-02-15T00:08:36;19.83;;;13.00;;
18544;SDS011;9402;51.460;7.276;2024-02-15T00:10:38;25.07;;;12.40;;
18544;SDS011;9402;51.460;7.276;2024-02-15T00:12:39;17.70;;;11.00;;
18544;SDS011;9402;51.460;7.276;2024-02-15T00:14:41;15.70;;;10.17;;
18544;SDS011;9402;51.460;7.276;2024-02-15T00:16:42;18.17;;;11.00;;
18544;SDS011;9402;51.460;7.276;2024-02-15T00:18:43;14.23;;;12.70;;
18544;SDS011;9402;51.460;7.276;2024-02-15T00:20:45;14.40;;;11.80;;
18544;SDS011;9402;51.460;7.276;2024-02-15T00:22:45;14.00;;;11.10;;
18544;SDS011;9402;51.460;7.276;2024-02-15T00:24:49;18.30;;;10.87;;
18544;SDS011;9402;51.460;7.276;2024-02-15T00:26:51;15.27;;;11.37;;
18544;SDS011;9402;51.460;7.276;2024-02-15T00:28:53;15.80;;;11.80;;
18544;SDS011;9402;51.460;7.276;2024-02-15T00:30:55;21.40;;;12.83;;
18544;SDS011;9402;51.460;7.276;2024-02-15T00:32:56;24.53;;;13.73;;
18544;SDS011;9402;51.460;7.276;2024-02-15T00:34:57;17.80;;;12.80;;
18544;SDS011;9402;51.460;7.276;2024-02-15T00:36:59;18.53;;;14.43;;
18544;SDS011;9402;51.460;7.276;2024-02-15T00:38:59;19.70;;;12.93;;
18544;SDS011;9402;51.460;7.276;2024-02-15T00:41:02;21.80;;;13.63;;
18544;SDS011;9402;51.460;7.276;2024-02-15T00:43:04;18.73;;;14.20;;
18544;SDS011;9402;51.460;7.276;2024-02-15T00:45:06;17.43;;;14.40;;
18544;SDS011;9402;51.460;7.276;2024-02-15T00:47:09;25.30;;;16.50;;
18544;SDS011;9402;51.460;7.276;2024-02-15T00:49:12;21.57;;;14.37;;
18544;SDS011;9402;51.460;7.276;2024-02-15T00:51:13;19.73;;;13.63;;
18544;SDS011;9402;51.460;7.276;2024-02-15T00:53:15;21.83;;;13.57;;
18544;SDS011;9402;51.460;7.276;2024-02-15T00:55:17;17.13;;;14.77;;
18544;SDS011;9402;51.460;7.276;2024-02-15T00:57:20;23.43;;;15.87;;
18544;SDS011;9402;51.460;7.276;2024-02-15T00:59:22;18.80;;;14.90;;
18544;SDS011;9402;51.460;7.276;2024-02-15T01:01:23;22.83;;;14.70;;
18544;SDS011;9402;51.460;7.276;2024-02-15T01:03:25;23.70;;;15.03;;
18544;SDS011;9402;51.460;7.276;2024-02-15T01:05:27;24.23;;;14.57;;
18544;SDS011;9402;51.460;7.276;2024-02-15T01:07:28;16.50;;;13.90;;
18544;SDS011;9402;51.460;7.276;2024-02-15T01:09:30;18.43;;;14.10;;
18544;SDS011;9402;51.460;7.276;2024-02-15T01:11:31;37.67;;;15.40;;
18544;SDS011;9402;51.460;7.276;2024-02-15T01:13:33;21.60;;;16.93;;
18544;SDS011;9402;51.460;7.276;2024-02-15T01:15:35;24.63;;;14.43;;
18544;SDS011;9402;51.460;7.276;2024-02-15T01:17:37;22.30;;;17.57;;
18544;SDS011;9402;51.460;7.276;2024-02-15T01:19:39;19.10;;;13.30;;
18544;SDS011;9402;51.460;7.276;2024-02-15T01:21:41;20.57;;;14.43;;
18544;SDS011;9402;51.460;7.276;2024-02-15T01:23:43;17.23;;;12.67;;
18544;SDS011;9402;51.460;7.276;2024-02-15T01:25:46;25.70;;;15.20;;
18544;SDS011;9402;51.460;7.276;2024-02-15T01:27:47;22.37;;;16.10;;
18544;SDS011;9402;51.460;7.276;2024-02-15T01:29:50;19.43;;;13.60;;
18544;SDS011;9402;51.460;7.276;2024-02-15T01:31:52;28.97;;;16.37;;
18544;SDS011;9402;51.460;7.276;2024-02-15T01:33:54;23.83;;;12.80;;
18544;SDS011;9402;51.460;7.276;2024-02-15T01:35:55;21.73;;;13.10;;
18544;SDS011;9402;51.460;7.276;2024-02-15T01:37:57;26.63;;;17.00;;
18544;SDS011;9402;51.460;7.276;2024-02-15T01:39:58;32.30;;;14.93;;
18544;SDS011;9402;51.460;7.276;2024-02-15T01:42:01;32.20;;;17.30;;
18544;SDS011;9402;51.460;7.276;2024-02-15T01:44:03;31.40;;;17.43;;
18544;SDS011;9402;51.460;7.276;2024-02-15T01:46:08;29.33;;;16.63;;
18544;SDS011;9402;51.460;7.276;2024-02-15T01:48:09;29.67;;;19.17;;
18544;SDS011;9402;51.460;7.276;2024-02-15T01:50:11;24.37;;;16.10;;
18544;SDS011;9402;51.460;7.276;2024-02-15T01:52:14;34.93;;;19.73;;
18544;SDS011;9402;51.460;7.276;2024-02-15T01:54:17;21.13;;;14.53;;
18544;SDS011;9402;51.460;7.276;2024-02-15T01:56:18;19.50;;;12.90;;
18544;SDS011;9402;51.460;7.276;2024-02-15T01:58:20;27.97;;;17.77;;
18544;SDS011;9402;51.460;7.276;2024-02-15T02:00:22;23.27;;;16.30;;
18544;SDS011;9402;51.460;7.276;2024-02-15T02:02:25;22.03;;;16.10;;
18544;SDS011;9402;51.460;7.276;2024-02-15T02:04:30;26.10;;;15.87;;
18544;SDS011;9402;51.460;7.276;2024-02-15T02:06:32;29.00;;;19.90;;
18544;SDS011;9402;51.460;7.276;2024-02-15T02:08:33;29.27;;;18.80;;
18544;SDS011;9402;51.460;7.276;2024-02-15T02:10:34;23.13;;;16.07;;
18544;SDS011;9402;51.460;7.276;2024-02-15T02:12:36;29.30;;;19.40;;
18544;SDS011;9402;51.460;7.276;2024-02-15T02:14:39;23.17;;;14.40;;
18544;SDS011;9402;51.460;7.276;2024-02-15T02:16:40;45.57;;;19.83;;
18544;SDS011;9402;51.460;7.276;2024-02-15T02:18:43;31.53;;;17.27;;
18544;SDS011;9402;51.460;7.276;2024-02-15T02:20:47;33.10;;;19.00;;
18544;SDS011;9402;51.460;7.276;2024-02-15T02:22:48;29.27;;;17.77;;
18544;SDS011;9402;51.460;7.276;2024-02-15T02:24:58;37.23;;;18.87;;
18544;SDS011;9402;51.460;7.276;2024-02-15T02:27:03;34.80;;;17.40;;
18544;SDS011;9402;51.460;7.276;2024-02-15T02:29:05;29.57;;;15.40;;
18544;SDS011;9402;51.460;7.276;2024-02-15T02:31:07;30.47;;;17.83;;
18544;SDS011;9402;51.460;7.276;2024-02-15T02:33:11;27.07;;;16.37;;
18544;SDS011;9402;51.460;7.276;2024-02-15T02:35:18;23.60;;;15.00;;
18544;SDS011;9402;51.460;7.276;2024-02-15T02:37:20;27.20;;;18.37;;
18544;SDS011;9402;51.460;7.276;2024-02-15T02:39:21;22.53;;;15.57;;
18544;SDS011;9402;51.460;7.276;2024-02-15T02:41:24;26.70;;;14.10;;
18544;SDS011;9402;51.460;7.276;2024-02-15T02:43:25;26.33;;;14.07;;
18544;SDS011;9402;51.460;7.276;2024-02-15T02:45:26;31.00;;;15.00;;
18544;SDS011;9402;51.460;7.276;2024-02-15T02:47:28;18.07;;;10.97;;
18544;SDS011;9402;51.460;7.276;2024-02-15T02:49:30;22.73;;;12.03;;
18544;SDS011;9402;51.460;7.276;2024-02-15T02:51:31;23.80;;;13.17;;
18544;SDS011;9402;51.460;7.276;2024-02-15T02:53:33;22.50;;;11.70;;
18544;SDS011;9402;51.460;7.276;2024-02-15T02:55:34;17.23;;;9.90;;
18544;SDS011;9402;51.460;7.276;2024-02-15T02:57:37;29.63;;;9.80;;
18544;SDS011;9402;51.460;7.276;2024-02-15T02:59:38;28.83;;;12.13;;
18544;SDS011;9402;51.460;7.276;2024-02-15T03:01:40;25.87;;;9.57;;
18544;SDS011;9402;51.460;7.276;2024-02-15T03:03:42;12.83;;;8.47;;
18544;SDS011;9402;51.460;7.276;2024-02-15T03:05:44;22.50;;;9.60;;
18544;SDS011;9402;51.460;7.276;2024-02-15T03:07:45;20.63;;;10.73;;
18544;SDS011;9402;51.460;7.276;2024-02-15T03:09:47;15.60;;;9.13;;
18544;SDS011;9402;51.460;7.276;2024-02-15T03:11:48;22.83;;;8.50;;
18544;SDS011;9402;51.460;7.276;2024-02-15T03:13:52;16.50;;;8.27;;
18544;SDS011;9402;51.460;7.276;2024-02-15T03:15:53;23.87;;;9.60;;
18544;SDS011;9402;51.460;7.276;2024-02-15T03:17:54;16.43;;;7.80;;
18544;SDS011;9402;51.460;7.276;2024-02-15T03:19:55;17.23;;;7.87;;
18544;SDS011;9402;51.460;7.276;2024-02-15T03:21:56;15.63;;;7.63;;
18544;SDS011;9402;51.460;7.276;2024-02-15T03:23:58;18.77;;;8.60;;
18544;SDS011;9402;51.460;7.276;2024-02-15T03:26:01;26.37;;;7.73;;
18544;SDS011;9402;51.460;7.276;2024-02-15T03:28:03;18.30;;;8.83;;
18544;SDS011;9402;51.460;7.276;2024-02-15T03:30:07;19.10;;;9.10;;
18544;SDS011;9402;51.460;7.276;2024-02-15T03:32:08;16.23;;;8.03;;
18544;SDS011;9402;51.460;7.276;2024-02-15T03:34:11;17.73;;;8.00;;
18544;SDS011;9402;51.460;7.276;2024-02-15T03:36:13;13.60;;;8.33;;
18544;SDS011;9402;51.460;7.276;2024-02-15T03:38:16;17.73;;;8.33;;
18544;SDS011;9402;51.460;7.276;2024-02-15T03:40:17;16.87;;;8.30;;
18544;SDS011;9402;51.460;7.276;2024-02-15T03:42:19;21.40;;;8.30;;
18544;SDS011;9402;51.460;7.276;2024-02-15T03:44:20;14.37;;;8.10;;
18544;SDS011;9402;51.460;7.276;2024-02-15T03:46:23;16.27;;;8.47;;
18544;SDS011;9402;51.460;7.276;2024-02-15T03:48:25;19.07;;;9.97;;
18544;SDS011;9402;51.460;7.276;2024-02-15T03:50:26;23.40;;;10.20;;
18544;SDS011;9402;51.460;7.276;2024-02-15T03:52:29;18.50;;;8.50;;
18544;SDS011;9402;51.460;7.276;2024-02-15T03:54:31;14.30;;;8.43;;
18544;SDS011;9402;51.460;7.276;2024-02-15T03:56:33;23.53;;;8.00;;
18544;SDS011;9402;51.460;7.276;2024-02-15T03:58:35;20.03;;;7.10;;
18544;SDS011;9402;51.460;7.276;2024-02-15T04:00:37;28.83;;;8.70;;
18544;SDS011;9402;51.460;7.276;2024-02-15T04:02:41;13.83;;;6.50;;
18544;SDS011;9402;51.460;7.276;2024-02-15T04:04:43;10.70;;;7.30;;
18544;SDS011;9402;51.460;7.276;2024-02-15T04:06:47;13.57;;;6.67;;
18544;SDS011;9402;51.460;7.276;2024-02-15T04:08:48;10.50;;;6.17;;
18544;SDS011;9402;51.460;7.276;2024-02-15T04:10:49;22.20;;;7.77;;
18544;SDS011;9402;51.460;7.276;2024-02-15T04:12:51;16.93;;;6.03;;
18544;SDS011;9402;51.460;7.276;2024-02-15T04:14:52;14.40;;;6.00;;
18544;SDS011;9402;51.460;7.276;2024-02-15T04:16:54;15.23;;;5.57;;
18544;SDS011;9402;51.460;7.276;2024-02-15T04:18:59;11.60;;;5.33;;
18544;SDS011;9402;51.460;7.276;2024-02-15T04:21:01;7.23;;;4.97;;
18544;SDS011;9402;51.460;7.276;2024-02-15T04:23:03;12.97;;;5.93;;
18544;SDS011;9402;51.460;7.276;2024-02-15T04:25:05;9.07;;;4.80;;
18544;SDS011;9402;51.460;7.276;2024-02-15T04:27:08;12.17;;;4.87;;
18544;SDS011;9402;51.460;7.276;2024-02-15T04:29:11;18.23;;;6.40;;
18544;SDS011;9402;51.460;7.276;2024-02-15T04:31:14;15.20;;;5.80;;
18544;SDS011;9402;51.460;7.276;2024-02-15T04:33:16;23.20;;;6.60;;
18544;SDS011;9402;51.460;7.276;2024-02-15T04:35:19;11.60;;;5.47;;
18544;SDS011;9402;51.460;7.276;2024-02-15T04:37:21;10.80;;;4.50;;
18544;SDS011;9402;51.460;7.276;2024-02-15T04:39:23;16.53;;;5.20;;
18544;SDS011;9402;51.460;7.276;2024-02-15T04:41:27;7.30;;;5.20;;
18544;SDS011;9402;51.460;7.276;2024-02-15T04:43:27;15.43;;;5.10;;
18544;SDS011;9402;51.460;7.276;2024-02-15T04:45:29;15.03;;;5.50;;
18544;SDS011;9402;51.460;7.276;2024-02-15T04:47:30;8.60;;;5.27;;
18544;SDS011;9402;51.460;7.276;2024-02-15T04:49:32;8.67;;;5.40;;
18544;SDS011;9402;51.460;7.276;2024-02-15T04:51:35;14.77;;;4.80;;
18544;SDS011;9402;51.460;7.276;2024-02-15T04:53:37;11.90;;;4.93;;
18544;SDS011;9402;51.460;7.276;2024-02-15T04:55:39;8.87;;;6.13;;
18544;SDS011;9402;51.460;7.276;2024-02-15T04:57:41;11.47;;;5.77;;
18544;SDS011;9402;51.460;7.276;2024-02-15T04:59:41;9.93;;;4.03;;
18544;SDS011;9402;51.460;7.276;2024-02-15T05:01:47;13.70;;;5.03;;
18544;SDS011;9402;51.460;7.276;2024-02-15T05:03:49;13.20;;;5.10;;
18544;SDS011;9402;51.460;7.276;2024-02-15T05:05:51;7.53;;;4.10;;
18544;SDS011;9402;51.460;7.276;2024-02-15T05:07:53;8.97;;;4.27;;
18544;SDS011;9402;51.460;7.276;2024-02-15T05:09:54;17.20;;;3.90;;
18544;SDS011;9402;51.460;7.276;2024-02-15T05:11:56;11.00;;;3.70;;
18544;SDS011;9402;51.460;7.276;2024-02-15T05:13:57;7.87;;;3.80;;
18544;SDS011;9402;51.460;7.276;2024-02-15T05:15:59;11.87;;;2.83;;
18544;SDS011;9402;51.460;7.276;2024-02-15T05:18:00;6.87;;;3.50;;
18544;SDS011;9402;51.460;7.276;2024-02-15T05:20:02;8.70;;;3.57;;
18544;SDS011;9402;51.460;7.276;2024-02-15T05:22:10;17.00;;;3.33;;
18544;SDS011;9402;51.460;7.276;2024-02-15T05:24:15;9.77;;;2.80;;
18544;SDS011;9402;51.460;7.276;2024-02-15T05:26:17;4.37;;;2.87;;
18544;SDS011;9402;51.460;7.276;2024-02-15T05:28:23;8.93;;;2.80;;
18544;SDS011;9402;51.460;7.276;2024-02-15T05:30:26;7.57;;;3.20;;
18544;SDS011;9402;51.460;7.276;2024-02-15T05:32:29;6.30;;;2.97;;
18544;SDS011;9402;51.460;7.276;2024-02-15T05:34:31;8.23;;;3.20;;
18544;SDS011;9402;51.460;7.276;2024-02-15T05:36:33;5.20;;;3.23;;
18544;SDS011;9402;51.460;7.276;2024-02-15T05:38:34;3.10;;;2.87;;
18544;SDS011;9402;51.460;7.276;2024-02-15T05:40:38;7.33;;;3.03;;
18544;SDS011;9402;51.460;7.276;2024-02-15T05:42:39;8.77;;;3.30;;
18544;SDS011;9402;51.460;7.276;2024-02-15T05:44:40;5.20;;;2.80;;
18544;SDS011;9402;51.460;7.276;2024-02-15T05:46:42;5.03;;;3.17;;
18544;SDS011;9402;51.460;7.276;2024-02-15T05:48:42;5.63;;;3.27;;
18544;SDS011;9402;51.460;7.276;2024-02-15T05:50:44;8.50;;;2.53;;
18544;SDS011;9402;51.460;7.276;2024-02-15T05:52:45;4.40;;;2.30;;
18544;SDS011;9402;51.460;7.276;2024-02-15T05:54:46;5.63;;;2.57;;
18544;SDS011;9402;51.460;7.276;2024-02-15T05:56:50;5.20;;;2.37;;
18544;SDS011;9402;51.460;7.276;2024-02-15T05:58:53;8.67;;;2.67;;
18544;SDS011;9402;51.460;7.276;2024-02-15T06:00:55;8.17;;;2.50;;
18544;SDS011;9402;51.460;7.276;2024-02-15T06:03:01;7.50;;;2.80;;
18544;SDS011;9402;51.460;7.276;2024-02-15T06:05:04;4.40;;;2.80;;
18544;SDS011;9402;51.460;7.276;2024-02-15T06:07:06;3.20;;;2.40;;
18544;SDS011;9402;51.460;7.276;2024-02-15T06:09:09;2.90;;;2.37;;
18544;SDS011;9402;51.460;7.276;2024-02-15T06:11:11;3.23;;;2.40;;
18544;SDS011;9402;51.460;7.276;2024-02-15T06:13:16;6.20;;;2.50;;
18544;SDS011;9402;51.460;7.276;2024-02-15T06:15:17;5.47;;;2.37;;
18544;SDS011;9402;51.460;7.276;2024-02-15T06:17:19;11.70;;;3.30;;
18544;SDS011;9402;51.460;7.276;2024-02-15T06:19:20;7.87;;;6.40;;
18544;SDS011;9402;51.460;7.276;2024-02-15T06:21:23;12.80;;;11.27;;
18544;SDS011;9402;51.460;7.276;2024-02-15T06:23:24;4.23;;;2.73;;
18544;SDS011;9402;51.460;7.276;2024-02-15T06:25:27;7.43;;;2.23;;
18544;SDS011;9402;51.460;7.276;2024-02-15T06:27:28;6.17;;;2.30;;
18544;SDS011;9402;51.460;7.276;2024-02-15T06:29:32;10.73;;;3.10;;
18544;SDS011;9402;51.460;7.276;2024-02-15T06:31:51;10.73;;;2.63;;
18544;SDS011;9402;51.460;7.276;2024-02-15T06:34:10;7.17;;;2.80;;
18544;SDS011;9402;51.460;7.276;2024-02-15T06:36:29;8.23;;;2.80;;
18544;SDS011;9402;51.460;7.276;2024-02-15T06:38:48;6.00;;;3.20;;
18544;SDS011;9402;51.460;7.276;2024-02-15T06:41:07;9.77;;;4.10;;
18544;SDS011;9402;51.460;7.276;2024-02-15T06:43:08;6.27;;;3.03;;
18544;SDS011;9402;51.460;7.276;2024-02-15T06:45:11;8.70;;;3.03;;
18544;SDS011;9402;51.460;7.276;2024-02-15T06:47:14;9.97;;;3.37;;
18544;SDS011;9402;51.460;7.276;2024-02-15T06:49:18;10.03;;;3.73;;
18544;SDS011;9402;51.460;7.276;2024-02-15T06:51:19;7.13;;;3.30;;
18544;SDS011;9402;51.460;7.276;2024-02-15T06:53:21;6.77;;;3.37;;
18544;SDS011;9402;51.460;7.276;2024-02-15T06:55:23;6.83;;;3.00;;
18544;SDS011;9402;51.460;7.276;2024-02-15T06:57:25;5.87;;;3.57;;
18544;SDS011;9402;51.460;7.276;2024-02-15T06:59:26;9.33;;;3.40;;
18544;SDS011;9402;51.460;7.276;2024-02-15T07:01:29;8.90;;;3.40;;
18544;SDS011;9402;51.460;7.276;2024-02-15T07:03:32;11.43;;;4.43;;
18544;SDS011;9402;51.460;7.276;2024-02-15T07:05:34;9.07;;;3.20;;
18544;SDS011;9402;51.460;7.276;2024-02-15T07:07:35;5.07;;;3.67;;
18544;SDS011;9402;51.460;7.276;2024-02-15T07:09:38;7.13;;;3.50;;
18544;SDS011;9402;51.460;7.276;2024-02-15T07:11:40;10.43;;;4.10;;
18544;SDS011;9402;51.460;7.276;2024-02-15T07:13:42;5.60;;;2.97;;
18544;SDS011;9402;51.460;7.276;2024-02-15T07:15:44;6.60;;;3.23;;
18544;SDS011;9402;51.460;7.276;2024-02-15T07:17:47;11.90;;;2.90;;
18544;SDS011;9402;51.460;7.276;2024-02-15T07:19:49;9.03;;;3.30;;
18544;SDS011;9402;51.460;7.276;2024-02-15T07:21:51;9.60;;;3.77;;
18544;SDS011;9402;51.460;7.276;2024-02-15T07:23:53;13.30;;;3.90;;
18544;SDS011;9402;51.460;7.276;2024-02-15T07:25:54;9.63;;;4.00;;
18544;SDS011;9402;51.460;7.276;2024-02-15T07:27:56;7.00;;;2.93;;
18544;SDS011;9402;51.460;7.276;2024-02-15T07:29:58;8.60;;;3.87;;
18544;SDS011;9402;51.460;7.276;2024-02-15T07:32:00;12.00;;;3.70;;
18544;SDS011;9402;51.460;7.276;2024-02-15T07:34:05;7.53;;;3.30;;
18544;SDS011;9402;51.460;7.276;2024-02-15T07:36:06;10.33;;;3.83;;
18544;SDS011;9402;51.460;7.276;2024-02-15T07:38:07;11.00;;;4.17;;
18544;SDS011;9402;51.460;7.276;2024-02-15T07:40:11;4.87;;;3.47;;
18544;SDS011;9402;51.460;7.276;2024-02-15T07:42:13;14.43;;;3.60;;
18544;SDS011;9402;51.460;7.276;2024-02-15T07:44:15;6.77;;;3.23;;
18544;SDS011;9402;51.460;7.276;2024-02-15T07:46:17;12.03;;;4.40;;
18544;SDS011;9402;51.460;7.276;2024-02-15T07:48:19;11.13;;;3.13;;
18544;SDS011;9402;51.460;7.276;2024-02-15T07:50:22;14.23;;;3.90;;
18544;SDS011;9402;51.460;7.276;2024-02-15T07:52:23;5.57;;;3.20;;
18544;SDS011;9402;51.460;7.276;2024-02-15T07:54:24;13.50;;;3.90;;
18544;SDS011;9402;51.460;7.276;2024-02-15T07:56:26;6.63;;;3.20;;
18544;SDS011;9402;51.460;7.276;2024-02-15T07:58:27;9.90;;;3.77;;
18544;SDS011;9402;51.460;7.276;2024-02-15T08:00:29;10.80;;;3.67;;
18544;SDS011;9402;51.460;7.276;2024-02-15T08:02:30;7.60;;;2.97;;
18544;SDS011;9402;51.460;7.276;2024-02-15T08:04:33;17.20;;;4.67;;
18544;SDS011;9402;51.460;7.276;2024-02-15T08:06:41;9.97;;;3.93;;
18544;SDS011;9402;51.460;7.276;2024-02-15T08:08:44;8.73;;;3.80;;
18544;SDS011;9402;51.460;7.276;2024-02-15T08:10:47;9.30;;;3.53;;
18544;SDS011;9402;51.460;7.276;2024-02-15T08:12:51;9.43;;;3.27;;
18544;SDS011;9402;51.460;7.276;2024-02-15T08:14:53;10.97;;;3.73;;
18544;SDS011;9402;51.460;7.276;2024-02-15T08:16:53;12.03;;;3.00;;
18544;SDS011;9402;51.460;7.276;2024-02-15T08:18:55;6.20;;;3.37;;
18544;SDS011;9402;51.460;7.276;2024-02-15T08:20:57;11.27;;;3.47;;
18544;SDS011;9402;51.460;7.276;2024-02-15T08:23:00;5.97;;;3.20;;
18544;SDS011;9402;51.460;7.276;2024-02-15T08:25:02;7.33;;;3.50;;
18544;SDS011;9402;51.460;7.276;2024-02-15T08:27:05;6.10;;;2.60;;
18544;SDS011;9402;51.460;7.276;2024-02-15T08:29:06;10.70;;;3.27;;
18544;SDS011;9402;51.460;7.276;2024-02-15T08:31:07;6.37;;;3.20;;
18544;SDS011;9402;51.460;7.276;2024-02-15T08:33:09;7.27;;;2.83;;
18544;SDS011;9402;51.460;7.276;2024-02-15T08:35:11;8.27;;;3.20;;
18544;SDS011;9402;51.460;7.276;2024-02-15T08:37:13;13.00;;;2.97;;
18544;SDS011;9402;51.460;7.276;2024-02-15T08:39:16;7.97;;;3.30;;
18544;SDS011;9402;51.460;7.276;2024-02-15T08:41:18;14.70;;;3.40;;
18544;SDS011;9402;51.460;7.276;2024-02-15T08:43:20;9.83;;;4.20;;
18544;SDS011;9402;51.460;7.276;2024-02-15T08:45:23;14.73;;;3.30;;
18544;SDS011;9402;51.460;7.276;2024-02-15T08:47:25;7.90;;;2.80;;
18544;SDS011;9402;51.460;7.276;2024-02-15T08:49:25;9.70;;;5.17;;
18544;SDS011;9402;51.460;7.276;2024-02-15T08:51:27;8.47;;;2.83;;
18544;SDS011;9402;51.460;7.276;2024-02-15T08:53:30;31.77;;;29.10;;
18544;SDS011;9402;51.460;7.276;2024-02-15T08:55:33;5.70;;;3.27;;
18544;SDS011;9402;51.460;7.276;2024-02-15T08:57:36;7.33;;;3.60;;
18544;SDS011;9402;51.460;7.276;2024-02-15T08:59:40;13.53;;;2.53;;
18544;SDS011;9402;51.460;7.276;2024-02-15T09:01:42;5.90;;;2.50;;
18544;SDS011;9402;51.460;7.276;2024-02-15T09:03:46;12.17;;;5.00;;
18544;SDS011;9402;51.460;7.276;2024-02-15T09:05:47;11.00;;;2.53;;
18544;SDS011;9402;51.460;7.276;2024-02-15T09:07:49;5.73;;;2.73;;
18544;SDS011;9402;51.460;7.276;2024-02-15T09:09:51;8.00;;;2.80;;
18544;SDS011;9402;51.460;7.276;2024-02-15T09:11:54;9.90;;;2.60;;
18544;SDS011;9402;51.460;7.276;2024-02-15T09:13:56;7.37;;;2.90;;
18544;SDS011;9402;51.460;7.276;2024-02-15T09:15:58;16.90;;;4.53;;
18544;SDS011;9402;51.460;7.276;2024-02-15T09:17:58;8.43;;;2.57;;
18544;SDS011;9402;51.460;7.276;2024-02-15T09:20:00;10.33;;;2.57;;
18544;SDS011;9402;51.460;7.276;2024-02-15T09:22:02;8.17;;;3.27;;
18544;SDS011;9402;51.460;7.276;2024-02-15T09:24:04;6.90;;;2.63;;
18544;SDS011;9402;51.460;7.276;2024-02-15T09:26:06;9.63;;;3.37;;
18544;SDS011;9402;51.460;7.276;2024-02-15T09:28:11;9.93;;;2.93;;
18544;SDS011;9402;51.460;7.276;2024-02-15T09:30:13;8.03;;;2.80;;
18544;SDS011;9402;51.460;7.276;2024-02-15T09:32:15;5.90;;;3.03;;
18544;SDS011;9402;51.460;7.276;2024-02-15T09:34:17;5.83;;;2.30;;
18544;SDS011;9402;51.460;7.276;2024-02-15T09:36:18;11.40;;;2.77;;
18544;SDS011;9402;51.460;7.276;2024-02-15T09:38:20;9.90;;;2.57;;
18544;SDS011;9402;51.460;7.276;2024-02-15T09:40:21;6.77;;;2.17;;
18544;SDS011;9402;51.460;7.276;2024-02-15T09:42:26;4.97;;;2.50;;
18544;SDS011;9402;51.460;7.276;2024-02-15T09:44:29;8.30;;;2.60;;
18544;SDS011;9402;51.460;7.276;2024-02-15T09:46:32;8.47;;;5.20;;
18544;SDS011;9402;51.460;7.276;2024-02-15T09:48:36;8.63;;;2.40;;
18544;SDS011;9402;51.460;7.276;2024-02-15T09:50:41;4.67;;;2.00;;
18544;SDS011;9402;51.460;7.276;2024-02-15T09:52:44;2.83;;;2.20;;
18544;SDS011;9402;51.460;7.276;2024-02-15T09:54:46;8.80;;;2.47;;
18544;SDS011;9402;51.460;7.276;2024-02-15T09:56:48;6.50;;;2.20;;
18544;SDS011;9402;51.460;7.276;2024-02-15T09:58:49;5.87;;;2.30;;
18544;SDS011;9402;51.460;7.276;2024-02-15T10:00:52;3.23;;;2.10;;
18544;SDS011;9402;51.460;7.276;2024-02-15T10:02:54;4.80;;;2.13;;
18544;SDS011;9402;51.460;7.276;2024-02-15T10:04:56;9.10;;;2.00;;
18544;SDS011;9402;51.460;7.276;2024-02-15T10:06:56;4.40;;;2.07;;
18544;SDS011;9402;51.460;7.276;2024-02-15T10:11:24;6.50;;;1.90;;
18544;SDS011;9402;51.460;7.276;2024-02-15T10:13:26;7.27;;;2.27;;
18544;SDS011;9402;51.460;7.276;2024-02-15T10:15:29;13.97;;;12.73;;
18544;SDS011;9402;51.460;7.276;2024-02-15T10:17:33;3.33;;;1.90;;
18544;SDS011;9402;51.460;7.276;2024-02-15T10:19:35;4.67;;;1.70;;
18544;SDS011;9402;51.460;7.276;2024-02-15T10:21:36;7.03;;;2.00;;
18544;SDS011;9402;51.460;7.276;2024-02-15T10:23:40;6.00;;;2.17;;
18544;SDS011;9402;51.460;7.276;2024-02-15T10:25:41;6.87;;;1.90;;
18544;SDS011;9402;51.460;7.276;2024-02-15T10:27:42;4.23;;;2.43;;
18544;SDS011;9402;51.460;7.276;2024-02-15T10:29:45;10.63;;;2.10;;
18544;SDS011;9402;51.460;7.276;2024-02-15T10:31:54;6.93;;;2.10;;
18544;SDS011;9402;51.460;7.276;2024-02-15T10:34:01;11.40;;;2.43;;
18544;SDS011;9402;51.460;7.276;2024-02-15T10:36:07;4.10;;;2.33;;
18544;SDS011;9402;51.460;7.276;2024-02-15T10:38:10;7.10;;;2.27;;
18544;SDS011;9402;51.460;7.276;2024-02-15T10:40:11;10.90;;;2.03;;
18544;SDS011;9402;51.460;7.276;2024-02-15T10:42:13;4.70;;;2.00;;
18544;SDS011;9402;51.460;7.276;2024-02-15T10:44:16;5.53;;;2.07;;
18544;SDS011;9402;51.460;7.276;2024-02-15T10:46:19;4.20;;;1.83;;
18544;SDS011;9402;51.460;7.276;2024-02-15T10:48:21;5.87;;;1.83;;
18544;SDS011;9402;51.460;7.276;2024-02-15T10:50:24;6.70;;;1.77;;
18544;SDS011;9402;51.460;7.276;2024-02-15T10:52:25;5.07;;;1.93;;
18544;SDS011;9402;51.460;7.276;2024-02-15T10:54:40;5.93;;;2.17;;
18544;SDS011;9402;51.460;7.276;2024-02-15T10:56:43;5.33;;;2.10;;
18544;SDS011;9402;51.460;7.276;2024-02-15T10:58:47;5.40;;;1.83;;
18544;SDS011;9402;51.460;7.276;2024-02-15T11:00:49;6.70;;;2.40;;
18544;SDS011;9402;51.460;7.276;2024-02-15T11:02:54;9.23;;;2.33;;
18544;SDS011;9402;51.460;7.276;2024-02-15T11:05:03;6.50;;;1.87;;
18544;SDS011;9402;51.460;7.276;2024-02-15T11:07:11;10.17;;;2.00;;
18544;SDS011;9402;51.460;7.276;2024-02-15T11:09:13;2.23;;;1.53;;
18544;SDS011;9402;51.460;7.276;2024-02-15T11:11:15;4.93;;;1.50;;
18544;SDS011;9402;51.460;7.276;2024-02-15T11:13:18;3.10;;;1.60;;
18544;SDS011;9402;51.460;7.276;2024-02-15T11:17:45;10.67;;;1.90;;
18544;SDS011;9402;51.460;7.276;2024-02-15T11:19:50;8.23;;;1.60;;
18544;SDS011;9402;51.460;7.276;2024-02-15T11:21:55;4.43;;;1.50;;
18544;SDS011;9402;51.460;7.276;2024-02-15T11:23:58;5.17;;;2.13;;
18544;SDS011;9402;51.460;7.276;2024-02-15T11:26:43;6.63;;;1.70;;
18544;SDS011;9402;51.460;7.276;2024-02-15T11:28:47;9.37;;;2.20;;
18544;SDS011;9402;51.460;7.276;2024-02-15T11:30:50;10.57;;;2.20;;
18544;SDS011;9402;51.460;7.276;2024-02-15T11:32:52;4.50;;;1.60;;
18544;SDS011;9402;51.460;7.276;2024-02-15T11:35:01;4.50;;;1.90;;
18544;SDS011;9402;51.460;7.276;2024-02-15T11:37:09;6.10;;;1.50;;
18544;SDS011;9402;51.460;7.276;2024-02-15T11:41:44;6.67;;;2.23;;
18544;SDS011;9402;51.460;7.276;2024-02-15T11:43:51;8.23;;;1.60;;
18544;SDS011;9402;51.460;7.276;2024-02-15T11:45:58;3.63;;;1.20;;
18544;SDS011;9402;51.460;7.276;2024-02-15T11:47:59;3.27;;;1.80;;
18544;SDS011;9402;51.460;7.276;2024-02-15T11:50:01;4.67;;;1.50;;
18544;SDS011;9402;51.460;7.276;2024-02-15T11:52:08;6.10;;;2.07;;
18544;SDS011;9402;51.460;7.276;2024-02-15T11:54:10;3.80;;;1.60;;
18544;SDS011;9402;51.460;7.276;2024-02-15T11:56:14;3.53;;;1.80;;
18544;SDS011;9402;51.460;7.276;2024-02-15T11:58:16;3.00;;;1.40;;
18544;SDS011;9402;51.460;7.276;2024-02-15T12:00:22;4.27;;;1.83;;
18544;SDS011;9402;51.460;7.276;2024-02-15T12:02:42;11.13;;;2.30;;
18544;SDS011;9402;51.460;7.276;2024-02-15T12:05:00;4.63;;;1.53;;
18544;SDS011;9402;51.460;7.276;2024-02-15T12:07:28;4.63;;;1.70;;
18544;SDS011;9402;51.460;7.276;2024-02-15T12:09:47;4.53;;;1.70;;
18544;SDS011;9402;51.460;7.276;2024-02-15T12:12:07;6.50;;;1.90;;
18544;SDS011;9402;51.460;7.276;2024-02-15T12:14:28;6.93;;;2.07;;
18544;SDS011;9402;51.460;7.276;2024-02-15T12:16:47;5.60;;;1.77;;
18544;SDS011;9402;51.460;7.276;2024-02-15T12:19:06;8.00;;;1.57;;
18544;SDS011;9402;51.460;7.276;2024-02-15T12:21:11;3.27;;;1.50;;
18544;SDS011;9402;51.460;7.276;2024-02-15T12:23:15;8.80;;;1.80;;
18544;SDS011;9402;51.460;7.276;2024-02-15T12:25:18;3.30;;;1.77;;
18544;SDS011;9402;51.460;7.276;2024-02-15T12:27:22;5.97;;;1.97;;
18544;SDS011;9402;51.460;7.276;2024-02-15T12:29:27;5.13;;;2.17;;
18544;SDS011;9402;51.460;7.276;2024-02-15T12:31:29;4.50;;;1.90;;